Time;durP1;ratioP1;P1;durP2;ratioP2;P2;SDS_P1;SDS_P2;PMS_P1;PMS_P2;Temp;Humidity;BMP_temperature;BMP_pressure;BME280_temperature;BME280_humidity;BME280_pressure;Samples;Min_cycle;Max_cycle;Signal;HPM_P1;HPM_P2
2022/12/26 00:02:04;;;;;;;27.70;15.23;;;;;;;5.50;79.00;101968.75;6280393;22;20007;-83
2022/12/26 00:04:30;;;;;;;24.30;14.05;;;;;;;5.39;79.06;101981.03;6279442;22;20403;-82
2022/12/26 00:06:57;;;;;;;30.87;15.43;;;;;;;5.49;78.96;101990.16;6275897;22;20003;-79
2022/12/26 00:09:24;;;;;;;27.02;15.30;;;;;;;5.55;78.57;101995.13;6274163;22;20583;-82
2022/12/26 00:11:49;;;;;;;30.38;15.55;;;;;;;5.62;78.42;101999.13;6248452;22;20432;-80
2022/12/26 00:14:15;;;;;;;29.37;16.33;;;;;;;5.41;78.29;101979.13;6274997;22;19995;-80
2022/12/26 00:16:43;;;;;;;33.42;16.67;;;;;;;5.29;79.18;101994.94;6250043;22;20023;-81
2022/12/26 00:19:09;;;;;;;31.40;16.20;;;;;;;5.31;78.70;101969.97;6276917;22;20069;-81
2022/12/26 00:21:35;;;;;;;30.92;16.95;;;;;;;5.23;78.59;101965.97;6303110;22;20075;-82
2022/12/26 00:24:02;;;;;;;30.77;16.83;;;;;;;5.37;78.66;102005.13;6250739;22;20017;-81
2022/12/26 00:26:29;;;;;;;29.08;17.20;;;;;;;5.41;78.50;101998.66;6271720;22;20003;-81
2022/12/26 00:28:55;;;;;;;34.53;18.48;;;;;;;5.28;79.13;102009.19;6274242;22;20136;-79
2022/12/26 00:31:32;;;;;;;35.03;18.77;;;;;;;5.32;78.98;102011.69;6275236;22;20015;-79
2022/12/26 00:34:01;;;;;;;35.00;19.33;;;;;;;5.06;79.93;101998.16;6303754;22;20014;-81
2022/12/26 00:36:30;;;;;;;38.03;19.48;;;;;;;5.11;79.93;102012.03;6282356;22;20003;-83
2022/12/26 00:38:57;;;;;;;37.20;18.92;;;;;;;5.06;80.62;102022.13;6250828;22;20034;-81
2022/12/26 00:41:23;;;;;;;;;;;;;;;5.01;80.88;102021.53;6303672;22;20026;-84
2022/12/26 00:43:49;;;;;;;33.38;18.80;;;;;;;5.00;80.85;102022.50;6302221;22;19906;-80
2022/12/26 00:46:16;;;;;;;38.97;18.87;;;;;;;4.95;81.18;102036.09;6276242;22;19999;-81
2022/12/26 00:48:42;;;;;;;38.03;19.15;;;;;;;4.74;82.35;102016.91;6276864;22;19999;-81
2022/12/26 00:51:08;;;;;;;38.92;20.38;;;;;;;4.63;83.54;102019.31;6276898;22;20559;-80
2022/12/26 00:53:33;;;;;;;39.83;20.63;;;;;;;4.61;84.33;102026.53;6254235;22;20022;-81
2022/12/26 00:55:59;;;;;;;38.10;20.37;;;;;;;4.74;84.05;102022.22;6301784;22;20289;-80
2022/12/26 00:58:25;;;;;;;39.65;20.98;;;;;;;4.69;84.44;102036.78;6275175;22;20108;-81
2022/12/26 01:00:50;;;;;;;42.13;20.90;;;;;;;4.69;84.05;102023.44;6274717;22;20007;-79
2022/12/26 01:03:17;;;;;;;47.53;21.40;;;;;;;4.61;85.10;102038.06;6249826;22;20229;-80
2022/12/26 01:05:51;;;;;;;46.08;22.33;;;;;;;4.49;85.53;102019.25;6277165;22;20178;-82
2022/12/26 01:08:17;;;;;;;38.47;20.67;;;;;;;4.53;85.35;102028.81;6277971;22;20526;-80
2022/12/26 01:10:43;;;;;;;;;;;;;;;4.62;84.86;102029.13;6274826;22;20009;-82
2022/12/26 01:13:10;;;;;;;40.08;19.90;;;;;;;4.48;85.47;102020.22;6274217;22;20081;-80
2022/12/26 01:15:37;;;;;;;42.45;20.85;;;;;;;4.57;85.27;102022.38;6274422;22;20038;-80
2022/12/26 01:18:02;;;;;;;47.10;21.15;;;;;;;4.42;85.53;102013.44;6250660;22;20007;-81
2022/12/26 01:20:28;;;;;;;43.15;20.83;;;;;;;4.47;85.50;102007.84;6302838;22;20087;-81
2022/12/26 01:22:54;;;;;;;37.35;19.55;;;;;;;4.57;84.97;102009.91;6250603;22;20349;-81
2022/12/26 01:25:19;;;;;;;40.72;19.23;;;;;;;4.50;84.23;101981.06;6270732;22;20417;-79
2022/12/26 01:27:45;;;;;;;43.80;20.00;;;;;;;4.60;84.20;102016.84;6275116;22;20097;-80
2022/12/26 01:30:12;;;;;;;38.80;19.35;;;;;;;4.57;84.14;102019.69;6275186;22;20015;-80
2022/12/26 01:32:38;;;;;;;34.58;18.75;;;;;;;4.75;83.91;102034.63;6250606;22;20388;-80
2022/12/26 01:35:06;;;;;;;37.80;18.65;;;;;;;4.60;83.24;102025.69;6249917;22;20007;-80
2022/12/26 01:37:31;;;;;;;32.67;17.83;;;;;;;4.61;83.90;102031.88;6303208;22;20003;-79
2022/12/26 01:39:58;;;;;;;34.17;17.63;;;;;;;4.64;83.44;102023.72;6274732;22;20011;-81
2022/12/26 01:42:25;;;;;;;35.97;17.92;;;;;;;4.74;82.95;102027.56;6224384;22;20261;-80
2022/12/26 01:45:05;;;;;;;;;;;;;;;4.65;82.99;102028.94;6304817;22;19999;-80
2022/12/26 01:47:42;;;;;;;37.20;16.42;;;;;;;4.53;82.34;102002.16;6303820;22;19983;-81
2022/12/26 01:50:41;;;;;;;30.75;16.10;;;;;;;4.63;82.21;102019.31;6253235;22;20056;-78
2022/12/26 01:53:20;;;;;;;26.70;15.50;;;;;;;4.63;82.11;102009.50;6323398;22;20015;-84
2022/12/26 01:55:47;;;;;;;28.48;15.68;;;;;;;4.70;81.33;102018.00;6268837;22;20007;-83
2022/12/26 01:58:16;;;;;;;24.65;13.15;;;;;;;4.56;80.75;102005.50;6276952;22;20007;-83
2022/12/26 02:00:41;;;;;;;22.00;12.48;;;;;;;4.62;80.25;102028.28;6312517;22;20089;-80
2022/12/26 02:05:54;;;;;;;24.63;12.77;;;;;;;4.65;79.78;102028.09;6256900;22;20244;-83
2022/12/26 02:08:24;;;;;;;25.10;13.23;;;;;;;4.67;79.61;102042.19;6249797;22;19999;-81
2022/12/26 02:11:12;;;;;;;21.95;12.02;;;;;;;4.76;78.95;102046.13;6257037;22;20396;-82
2022/12/26 02:13:38;;;;;;;23.17;12.07;;;;;;;4.75;78.34;102045.28;6275525;22;20456;-79
2022/12/26 02:16:06;;;;;;;23.55;11.85;;;;;;;4.69;78.67;102045.63;6273144;22;20068;-81
2022/12/26 02:18:31;;;;;;;23.02;12.20;;;;;;;4.71;78.88;102041.06;6282310;22;20065;-81
2022/12/26 02:21:31;;;;;;;23.15;12.13;;;;;;;4.84;78.49;102060.69;6254075;22;20008;-80
2022/12/26 02:24:18;;;;;;;18.98;10.43;;;;;;;4.89;77.70;102063.09;6302186;22;20017;-81
2022/12/26 02:27:05;;;;;;;22.55;11.75;;;;;;;4.91;77.54;102055.88;6303310;22;20007;-80
2022/12/26 02:29:48;;;;;;;20.98;11.20;;;;;;;4.93;77.26;102063.78;6299853;22;20023;-81
2022/12/26 02:32:26;;;;;;;20.42;11.65;;;;;;;4.72;78.28;102058.75;6304090;22;20173;-80
2022/12/26 02:35:18;;;;;;;22.02;11.48;;;;;;;4.68;78.41;102056.34;6275947;22;20011;-81
2022/12/26 02:38:07;;;;;;;21.20;12.18;;;;;;;4.64;78.54;102055.69;6289307;22;20033;-80
2022/12/26 02:40:35;;;;;;;23.95;12.02;;;;;;;4.62;78.57;102060.25;6247683;22;20343;-83
2022/12/26 02:43:40;;;;;;;25.13;12.50;;;;;;;4.69;78.38;102056.28;6302949;22;20007;-80
2022/12/26 02:49:16;;;;;;;27.95;13.27;;;;;;;4.61;78.36;102038.06;6281143;22;20090;-80
2022/12/26 03:15:09;;;;;;;33.63;18.10;;;;;;;4.22;81.67;102058.03;6306365;22;20034;-80
2022/12/26 03:17:47;;;;;;;39.40;19.40;;;;;;;3.97;82.41;102031.91;6249546;22;20350;-84
2022/12/26 03:20:38;;;;;;;33.15;19.27;;;;;;;4.10;82.66;102052.53;6302313;22;20069;-80
2022/12/26 03:23:07;;;;;;;36.38;18.85;;;;;;;4.05;83.02;102065.22;6279172;22;20015;-80
2022/12/26 03:28:28;;;;;;;35.50;18.35;;;;;;;3.78;82.52;102023.22;6303678;22;20105;-79
2022/12/26 03:30:56;;;;;;;32.53;16.90;;;;;;;4.00;82.23;102049.50;6221621;22;20371;-79
2022/12/26 03:36:12;;;;;;;31.63;16.67;;;;;;;4.07;81.54;102052.69;6272422;22;20023;-82
2022/12/26 03:38:50;;;;;;;31.27;16.63;;;;;;;4.09;81.07;102050.81;6218965;22;20425;-80
2022/12/26 04:20:12;;;;;;;34.58;16.63;;;;;;;3.67;83.67;102061.03;6267090;22;20094;-80
2022/12/26 04:44:10;;;;;;;31.42;16.55;;;;;;;3.66;82.68;102063.78;6261481;22;20018;-80
2022/12/26 04:46:40;;;;;;;33.35;16.73;;;;;;;3.65;82.80;102078.03;6257150;22;20027;-81
2022/12/26 04:51:56;;;;;;;31.42;16.35;;;;;;;3.65;82.03;102073.56;6278415;22;20075;-78
2022/12/26 04:54:22;;;;;;;33.05;16.83;;;;;;;3.72;81.76;102095.38;6249734;22;20003;-79
2022/12/26 04:56:47;;;;;;;31.42;16.55;;;;;;;3.62;81.80;102086.16;6300280;22;20114;-79
2022/12/26 04:59:14;;;;;;;31.80;16.37;;;;;;;3.61;81.80;102100.41;6273890;22;20378;-80
2022/12/26 05:10:38;;;;;;;35.28;18.05;;;;;;;3.52;81.71;102129.19;6284527;22;20344;-81
2022/12/26 05:13:05;;;;;;;36.85;17.90;;;;;;;3.55;81.63;102133.50;6276571;22;20011;-80
2022/12/26 05:28:40;;;;;;;36.22;18.55;;;;;;;3.52;81.84;102136.31;6273437;22;20319;-80
2022/12/26 05:29:15;;;;;;;41.08;19.67;;;;;;;3.05;83.32;102145.75;6279965;22;20117;-81
2022/12/26 05:31:40;;;;;;;38.63;18.90;;;;;;;3.06;83.08;102152.78;6249913;22;20003;-81
2022/12/26 05:34:12;;;;;;;39.70;19.40;;;;;;;3.05;83.44;102153.72;6224344;22;20450;-80
2022/12/26 05:36:41;;;;;;;41.13;19.23;;;;;;;2.72;83.77;102114.59;6302755;22;19999;-79
2022/12/26 05:39:08;;;;;;;48.60;20.00;;;;;;;3.04;83.51;102149.34;6250540;22;20072;-81
2022/12/26 05:41:35;;;;;;;46.08;20.67;;;;;;;3.12;83.20;102163.13;6275426;22;20219;-84
2022/12/26 05:44:02;;;;;;;45.40;20.38;;;;;;;3.03;83.40;102163.56;6275366;22;20015;-81
2022/12/26 05:46:28;;;;;;;42.85;19.52;;;;;;;2.92;83.50;102147.28;6274606;22;20125;-81
2022/12/26 05:48:55;;;;;;;40.03;19.53;;;;;;;3.10;82.58;102156.16;6248964;22;20083;-79
2022/12/26 05:51:21;;;;;;;42.85;19.25;;;;;;;3.11;82.19;102150.78;6302280;22;20076;-81
2022/12/26 05:53:47;;;;;;;40.03;20.02;;;;;;;3.01;82.18;102146.84;6274659;22;20439;-81
2022/12/26 05:56:15;;;;;;;42.67;20.98;;;;;;;2.85;82.62;102143.22;6251462;22;20077;-81
2022/12/26 05:58:41;;;;;;;37.90;18.40;;;;;;;2.95;82.29;102150.69;6301364;22;20088;-82
2022/12/26 06:01:15;;;;;;;37.50;18.13;;;;;;;3.00;82.28;102160.19;6251659;22;20406;-83
2022/12/26 06:03:42;;;;;;;39.65;18.48;;;;;;;2.89;82.31;102135.03;6278348;22;20234;-85
2022/12/26 06:06:09;;;;;;;37.05;18.02;;;;;;;3.14;81.93;102169.22;6279194;22;19996;-80
2022/12/26 06:08:35;;;;;;;37.65;18.60;;;;;;;3.08;81.82;102147.41;6304651;22;20007;-82
2022/12/26 06:11:10;;;;;;;39.55;19.83;;;;;;;3.14;81.71;102152.44;6279070;22;20003;-80
2022/12/26 06:13:36;;;;;;;38.90;19.83;;;;;;;3.28;81.77;102165.88;6310085;22;20069;-80
2022/12/26 06:16:06;;;;;;;38.00;19.73;;;;;;;3.21;81.43;102150.28;6306674;22;20392;-82
2022/12/26 06:18:31;;;;;;;37.70;18.83;;;;;;;3.33;81.14;102141.72;6306530;22;20005;-80
2022/12/26 06:20:58;;;;;;;42.75;19.17;;;;;;;3.33;81.02;102142.59;6279075;22;20299;-80
2022/12/26 06:23:24;;;;;;;38.25;17.23;;;;;;;3.54;80.67;102150.41;6272095;22;20057;-80
2022/12/26 06:25:56;;;;;;;33.90;16.27;;;;;;;3.46;80.71;102137.47;6278999;22;20000;-81
2022/12/26 06:28:23;;;;;;;37.63;17.08;;;;;;;3.63;80.15;102149.06;6283563;22;20432;-82
2022/12/26 06:30:50;;;;;;;38.38;18.38;;;;;;;3.59;79.72;102140.38;6250797;22;20018;-82
2022/12/26 06:33:16;;;;;;;32.00;16.92;;;;;;;3.68;79.37;102137.25;6222348;22;20012;-82
2022/12/26 06:35:43;;;;;;;36.05;15.52;;;;;;;3.88;78.70;102157.47;6256314;22;20085;-82
2022/12/26 06:38:09;;;;;;;29.05;15.52;;;;;;;3.86;78.50;102148.69;6252748;22;19995;-81
2022/12/26 06:41:01;;;;;;;34.47;16.73;;;;;;;3.92;78.41;102148.38;6253146;22;20003;-81
2022/12/26 06:43:26;;;;;;;36.55;17.10;;;;;;;3.92;78.15;102151.03;6270364;22;20018;-81
2022/12/26 06:45:56;;;;;;;35.67;17.43;;;;;;;3.93;78.46;102147.47;6238503;22;20012;-80
2022/12/26 06:48:25;;;;;;;36.53;18.75;;;;;;;3.87;78.62;102153.09;6254432;22;20125;-80
2022/12/26 06:50:54;;;;;;;37.55;19.08;;;;;;;3.90;78.87;102158.25;6278249;22;20000;-81
2022/12/26 06:53:22;;;;;;;38.33;18.58;;;;;;;4.06;78.21;102157.44;6250152;22;20062;-80
2022/12/26 06:55:50;;;;;;;33.80;16.45;;;;;;;3.95;77.51;102139.38;6274650;22;20094;-82
2022/12/26 06:58:16;;;;;;;36.83;17.05;;;;;;;4.02;77.81;102154.94;6248853;22;20068;-81
2022/12/26 07:00:41;;;;;;;32.80;15.55;;;;;;;3.86;77.53;102146.03;6223417;22;20070;-81
2022/12/26 07:03:07;;;;;;;32.28;15.25;;;;;;;3.92;77.47;102135.09;6225477;22;20019;-81
2022/12/26 07:05:40;;;;;;;28.88;14.50;;;;;;;4.05;77.12;102161.03;6275329;22;20058;-80
2022/12/26 07:08:06;;;;;;;27.52;14.70;;;;;;;3.91;77.67;102175.94;6222055;22;20008;-80
2022/12/26 07:10:35;;;;;;;25.08;12.77;;;;;;;4.12;76.56;102189.03;6221782;22;20006;-81
2022/12/26 07:13:01;;;;;;;23.83;12.40;;;;;;;4.14;76.30;102161.41;6246318;22;20515;-83
2022/12/26 07:15:26;;;;;;;30.97;12.67;;;;;;;4.47;75.58;102178.28;6201587;22;20027;-81
2022/12/26 07:17:52;;;;;;;25.15;13.60;;;;;;;4.71;75.27;102187.59;6221944;22;20024;-82
2022/12/26 07:20:18;;;;;;;23.70;13.37;;;;;;;5.68;72.34;102180.19;6222218;22;20173;-81
2022/12/26 07:22:43;;;;;;;27.47;13.13;;;;;;;7.89;65.70;102174.91;6246932;22;20007;-82
2022/12/26 07:25:09;;;;;;;23.67;12.50;;;;;;;10.10;58.87;102166.63;6252334;22;20227;-82
2022/12/26 07:27:35;;;;;;;22.05;12.43;;;;;;;11.94;52.17;102155.94;6247108;22;20483;-85
2022/12/26 07:30:00;;;;;;;23.17;12.55;;;;;;;13.69;47.83;102165.25;6284585;22;20466;-82
2022/12/26 07:32:27;;;;;;;24.27;13.55;;;;;;;15.28;44.07;102158.81;6304370;22;20003;-82
2022/12/26 07:34:54;;;;;;;20.58;13.20;;;;;;;16.02;40.07;102156.69;6305154;22;20057;-85
2022/12/26 07:37:19;;;;;;;28.85;16.27;;;;;;;16.77;38.94;102161.44;6277594;22;20088;-85
2022/12/26 07:39:46;;;;;;;;;;;;;;;17.78;36.71;102172.09;6252562;22;20382;-83
2022/12/26 07:42:13;;;;;;;33.28;20.50;;;;;;;18.97;35.31;102168.47;6305653;22;19929;-84
2022/12/26 07:44:40;;;;;;;33.95;21.50;;;;;;;20.22;33.46;102167.22;6250707;22;20091;-85
2022/12/26 07:47:06;;;;;;;44.03;25.75;;;;;;;21.04;30.70;102144.31;6304929;22;20129;-84
2022/12/26 07:49:31;;;;;;;48.33;29.00;;;;;;;21.83;29.79;102165.25;6252476;22;20026;-82
2022/12/26 07:51:58;;;;;;;46.25;29.38;;;;;;;22.34;28.92;102162.25;6277842;22;20014;-84
2022/12/26 07:54:27;;;;;;;53.05;33.47;;;;;;;22.51;28.44;102152.63;6252717;22;20064;-86
2022/12/26 07:56:52;;;;;;;67.60;37.63;;;;;;;21.98;28.24;102168.72;6254264;22;19999;-83
2022/12/26 07:59:18;;;;;;;66.57;39.22;;;;;;;21.81;28.75;102161.88;6251641;22;20347;-82
2022/12/26 08:01:44;;;;;;;76.10;44.00;;;;;;;21.91;28.80;102162.34;6252850;22;20018;-84
2022/12/26 08:04:13;;;;;;;87.43;47.70;;;;;;;22.32;28.42;102162.44;6277715;22;20044;-85
2022/12/26 08:06:42;;;;;;;86.35;49.75;;;;;;;22.28;28.36;102169.34;6280474;22;20016;-86
2022/12/26 08:09:14;;;;;;;93.75;49.67;;;;;;;21.84;28.75;102164.19;6307563;22;20050;-87
2022/12/26 08:11:41;;;;;;;81.93;47.40;;;;;;;22.26;28.80;102174.19;6255333;22;20086;-88
2022/12/26 08:14:10;;;;;;;83.90;44.72;;;;;;;22.76;27.97;102171.28;6282244;22;20002;-87
2022/12/26 08:16:44;;;;;;;82.18;46.30;;;;;;;23.52;27.03;102154.56;6256352;22;19995;-82
2022/12/26 08:19:18;;;;;;;82.00;47.47;;;;;;;24.02;25.75;102134.88;6305840;22;20478;-83
2022/12/26 08:21:52;;;;;;;82.00;47.95;;;;;;;24.91;24.95;102158.06;6304513;22;20010;-86
2022/12/26 08:24:23;;;;;;;76.53;46.92;;;;;;;23.43;25.77;102168.69;6276249;22;20042;-85
2022/12/26 08:26:50;;;;;;;70.93;44.50;;;;;;;24.19;25.72;102177.34;6306675;22;20136;-87
2022/12/26 08:29:18;;;;;;;68.00;45.03;;;;;;;24.61;24.50;102164.13;6256405;22;20011;-87
2022/12/26 08:31:46;;;;;;;64.18;42.25;;;;;;;25.04;24.41;102157.94;6254303;22;20003;-87
2022/12/26 08:34:15;;;;;;;54.83;38.30;;;;;;;25.19;24.20;102160.44;6291169;22;20014;-87
2022/12/26 08:36:59;;;;;;;47.88;36.03;;;;;;;25.35;23.60;102142.53;6264514;22;20034;-87
2022/12/26 08:39:28;;;;;;;59.65;40.08;;;;;;;25.78;23.37;102138.13;6312188;22;20007;-86
2022/12/26 08:41:55;;;;;;;66.47;46.47;;;;;;;25.64;23.53;102145.69;6305851;22;20070;-84
2022/12/26 08:44:46;;;;;;;61.65;45.35;;;;;;;26.57;22.45;102138.34;6259559;22;20029;-87
2022/12/26 08:47:12;;;;;;;60.85;44.95;;;;;;;27.25;21.46;102126.13;6276986;22;20019;-85
2022/12/26 08:49:40;;;;;;;66.20;45.00;;;;;;;27.60;21.06;102114.28;6278311;22;20014;-86
2022/12/26 08:52:07;;;;;;;67.30;46.72;;;;;;;28.44;20.31;102119.47;6305447;22;20491;-85
2022/12/26 08:54:33;;;;;;;61.55;45.72;;;;;;;29.21;19.27;102106.03;6252429;22;20011;-82
2022/12/26 08:57:00;;;;;;;60.63;45.20;;;;;;;29.59;18.78;102126.56;6251466;22;20011;-84
2022/12/26 08:59:28;;;;;;;63.70;46.15;;;;;;;29.75;18.15;102126.84;6252108;22;20078;-85
2022/12/26 09:01:55;;;;;;;52.45;40.03;;;;;;;29.78;17.81;102123.56;6277407;22;20006;-83
2022/12/26 09:04:20;;;;;;;49.10;37.00;;;;;;;30.08;17.63;102109.28;6251023;22;20007;-82
2022/12/26 09:06:46;;;;;;;48.08;33.38;;;;;;;30.60;16.55;102119.09;6251510;22;19999;-83
2022/12/26 09:09:13;;;;;;;42.35;34.20;;;;;;;31.45;16.32;102102.75;6279543;22;20007;-82
2022/12/26 09:11:41;;;;;;;45.90;33.17;;;;;;;30.42;16.42;102096.16;6251124;22;20432;-82
2022/12/26 09:14:09;;;;;;;43.50;31.45;;;;;;;30.64;16.54;102098.06;6279407;22;20013;-83
2022/12/26 09:16:41;;;;;;;39.72;24.80;;;;;;;31.31;15.56;102094.81;6283706;22;20120;-84
2022/12/26 09:19:10;;;;;;;27.27;20.67;;;;;;;31.49;15.33;102082.47;6276930;22;20096;-84
2022/12/26 09:21:37;;;;;;;23.42;16.65;;;;;;;32.08;14.59;102084.22;6284141;22;20003;-83
2022/12/26 09:24:05;;;;;;;20.13;13.82;;;;;;;32.58;14.15;102066.03;6303826;22;20018;-82
2022/12/26 09:26:32;;;;;;;19.05;14.43;;;;;;;33.04;13.70;102068.06;6276657;22;20003;-83
2022/12/26 09:29:01;;;;;;;18.70;13.35;;;;;;;33.80;13.29;102067.09;6251494;22;20052;-84
2022/12/26 09:31:28;;;;;;;18.95;13.15;;;;;;;34.37;12.66;102037.00;6308088;22;20049;-83
2022/12/26 09:33:55;;;;;;;16.67;12.13;;;;;;;34.60;12.55;102055.00;6307293;22;20007;-82
2022/12/26 09:36:32;;;;;;;13.48;9.60;;;;;;;34.12;12.72;102053.91;6252289;22;20019;-83
2022/12/26 09:38:58;;;;;;;12.23;8.35;;;;;;;33.89;12.64;102052.56;6280201;22;20061;-85
2022/12/26 09:41:30;;;;;;;7.75;4.72;;;;;;;33.99;12.13;102052.53;6276914;22;20048;-84
2022/12/26 09:44:10;;;;;;;8.57;6.28;;;;;;;34.34;11.91;102054.31;6276228;22;20015;-83
2022/12/26 09:46:42;;;;;;;13.55;7.18;;;;;;;33.87;12.93;102052.84;6303872;22;20058;-83
2022/12/26 09:49:39;;;;;;;10.60;7.28;;;;;;;34.64;11.75;102047.72;6276172;22;20007;-83
2022/12/26 09:52:14;;;;;;;10.60;7.20;;;;;;;34.79;11.87;102045.94;6293013;22;20007;-84
2022/12/26 09:55:04;;;;;;;16.23;7.78;;;;;;;35.30;11.64;102034.31;6276782;22;20091;-83
2022/12/26 09:57:41;;;;;;;9.20;6.78;;;;;;;35.83;10.85;102037.09;6303518;22;20018;-83
2022/12/26 10:00:15;;;;;;;14.05;9.55;;;;;;;35.06;11.83;102012.72;6276753;22;20072;-83
2022/12/26 10:02:43;;;;;;;13.45;9.90;;;;;;;34.38;12.31;102029.47;6276612;22;20434;-84
2022/12/26 10:05:12;;;;;;;12.55;10.50;;;;;;;33.37;12.70;102044.31;6277475;22;20017;-81
2022/12/26 10:07:40;;;;;;;20.30;13.50;;;;;;;32.66;13.62;102036.78;6250762;22;20007;-84
2022/12/26 10:10:32;;;;;;;19.52;15.43;;;;;;;32.61;13.86;102024.81;6277522;22;20039;-80
2022/12/26 10:13:19;;;;;;;19.42;14.85;;;;;;;31.50;14.82;102036.06;6271952;22;20004;-80
2022/12/26 10:15:49;;;;;;;19.67;13.80;;;;;;;31.45;14.34;102033.28;6305363;22;20417;-81
2022/12/26 10:18:27;;;;;;;14.45;12.10;;;;;;;31.62;14.23;102036.69;6277711;22;20082;-82
2022/12/26 10:21:03;;;;;;;14.88;12.32;;;;;;;31.33;14.77;102034.28;6276994;22;20011;-82
2022/12/26 10:23:41;;;;;;;13.88;11.40;;;;;;;31.17;14.85;102035.28;6304735;22;19995;-81
2022/12/26 10:26:30;;;;;;;13.07;10.40;;;;;;;31.32;15.05;102021.47;6305744;22;20068;-81
2022/12/26 10:29:01;;;;;;;11.05;8.63;;;;;;;29.93;15.84;102018.44;6299640;22;20444;-82
2022/12/26 10:31:37;;;;;;;12.50;8.63;;;;;;;30.30;15.70;102017.81;6304476;22;20023;-82
2022/12/26 10:34:25;;;;;;;6.82;4.60;;;;;;;29.19;15.95;102016.81;6278518;22;20007;-82
2022/12/26 10:36:58;;;;;;;6.82;4.30;;;;;;;29.13;16.33;101995.72;6305972;22;20153;-84
2022/12/26 10:39:43;;;;;;;7.82;4.93;;;;;;;28.94;16.57;102005.31;6277589;22;20025;-82
2022/12/26 10:42:37;;;;;;;6.05;4.65;;;;;;;29.21;16.70;102006.34;6254770;22;20007;-83
2022/12/26 10:45:28;;;;;;;8.32;5.97;;;;;;;29.36;16.58;102004.88;6276390;22;20038;-83
2022/12/26 10:47:53;;;;;;;8.48;5.20;;;;;;;28.35;17.35;102000.97;6305038;22;20091;-82
2022/12/26 10:50:25;;;;;;;7.25;5.57;;;;;;;27.48;18.40;102007.41;6228273;22;19999;-82
2022/12/26 10:52:55;;;;;;;7.85;5.22;;;;;;;27.45;18.70;102002.38;6279499;22;20093;-83
2022/12/26 10:55:32;;;;;;;7.32;6.07;;;;;;;27.34;18.84;102006.81;6278684;22;20086;-82
2022/12/26 10:58:04;;;;;;;8.73;6.30;;;;;;;27.55;18.71;102012.81;6280835;22;20445;-83
2022/12/26 11:00:35;;;;;;;8.32;6.20;;;;;;;28.71;17.83;101998.88;6279568;22;20007;-84
2022/12/26 11:03:14;;;;;;;9.93;6.38;;;;;;;28.44;17.67;102008.84;6254230;22;20099;-82
2022/12/26 11:05:49;;;;;;;7.45;5.20;;;;;;;27.74;18.25;102006.03;6282170;22;20123;-85
2022/12/26 11:08:31;;;;;;;10.73;6.47;;;;;;;26.76;20.46;101993.78;6267743;22;20013;-81
2022/12/26 11:11:44;;;;;;;8.20;5.47;;;;;;;27.86;18.65;101992.25;6320269;22;20011;-82
2022/12/26 11:14:33;;;;;;;5.97;4.63;;;;;;;27.38;19.14;101984.28;6280949;22;20451;-84
2022/12/26 11:17:49;;;;;;;7.07;4.28;;;;;;;26.52;19.06;101981.84;6294504;22;20027;-84
2022/12/26 11:20:15;;;;;;;4.85;3.40;;;;;;;26.60;18.27;101977.91;6311091;22;20496;-81
2022/12/26 11:29:23;;;;;;;5.43;3.90;;;;;;;24.55;22.05;101945.03;6308512;22;20009;-83
2022/12/26 11:31:49;;;;;;;5.22;3.78;;;;;;;24.99;22.14;101965.19;6305838;22;20006;-82
2022/12/26 11:34:20;;;;;;;6.35;3.63;;;;;;;25.08;21.41;101951.19;6278307;22;20348;-82
2022/12/26 11:36:48;;;;;;;5.50;4.20;;;;;;;24.37;23.12;101961.41;6278840;22;20003;-83
2022/12/26 11:39:20;;;;;;;6.20;4.40;;;;;;;24.08;23.86;101958.22;6262235;22;19999;-83
2022/12/26 11:41:48;;;;;;;6.68;4.50;;;;;;;23.40;24.64;101942.19;6307322;22;20006;-82
2022/12/26 11:44:30;;;;;;;5.13;3.80;;;;;;;23.10;24.53;101958.28;6305558;22;19995;-82
2022/12/26 11:47:06;;;;;;;6.05;4.43;;;;;;;23.39;24.94;101946.84;6278721;22;20439;-81
2022/12/26 11:49:40;;;;;;;6.55;4.57;;;;;;;22.18;26.06;101954.38;6280286;22;20440;-82
2022/12/26 11:52:37;;;;;;;7.10;4.65;;;;;;;22.40;25.32;101950.44;6279367;22;20436;-81
2022/12/26 11:55:22;;;;;;;5.05;3.47;;;;;;;22.61;25.34;101943.09;6306064;22;20057;-81
2022/12/26 11:57:56;;;;;;;4.35;3.15;;;;;;;21.78;26.26;101948.78;6252608;22;20003;-82
2022/12/26 12:00:24;;;;;;;4.10;2.73;;;;;;;21.41;26.27;101939.94;6304810;22;20029;-82
2022/12/26 12:02:52;;;;;;;4.18;3.05;;;;;;;21.40;26.75;101951.91;6278626;22;20222;-83
2022/12/26 12:05:35;;;;;;;4.53;3.10;;;;;;;21.18;26.69;101941.03;6278116;22;20086;-84
2022/12/26 12:08:17;;;;;;;5.75;3.33;;;;;;;20.25;28.21;101942.94;6305767;22;19999;-81
2022/12/26 12:11:07;;;;;;;4.07;3.10;;;;;;;20.10;28.00;101950.34;6305797;22;20002;-81
2022/12/26 12:13:54;;;;;;;3.92;2.58;;;;;;;18.82;29.47;101946.00;6304350;22;20308;-81
2022/12/26 12:16:48;;;;;;;3.88;2.60;;;;;;;18.80;30.13;101956.22;6277901;22;20034;-83
2022/12/26 12:19:46;;;;;;;4.13;2.75;;;;;;;18.37;30.38;101948.53;6279107;22;19999;-82
2022/12/26 12:22:22;;;;;;;3.65;2.65;;;;;;;18.47;30.52;101951.03;6275696;22;20016;-83
2022/12/26 12:25:12;;;;;;;4.65;2.88;;;;;;;18.64;30.46;101954.47;6246606;22;20007;-83
2022/12/26 12:28:18;;;;;;;3.95;2.92;;;;;;;18.00;32.42;101950.13;6274031;22;20003;-81
2022/12/26 12:31:13;;;;;;;4.40;2.42;;;;;;;17.47;33.41;101951.72;6276536;22;19996;-83
2022/12/26 12:33:54;;;;;;;4.90;3.17;;;;;;;17.02;34.84;101958.59;6226429;22;20000;-83
2022/12/26 12:36:47;;;;;;;4.65;2.80;;;;;;;16.52;36.46;101956.91;6247206;22;20023;-82
2022/12/26 12:42:59;;;;;;;4.93;3.47;;;;;;;15.03;40.28;101964.56;6284872;22;20034;-82
2022/12/26 12:45:43;;;;;;;6.57;3.22;;;;;;;15.24;39.87;101962.38;6272748;22;20119;-82
2022/12/26 12:52:01;;;;;;;6.25;4.15;;;;;;;14.90;41.54;101975.84;6275114;22;20042;-82
2022/12/26 12:55:00;;;;;;;7.57;3.95;;;;;;;14.70;42.18;101964.31;6248658;22;19999;-82
2022/12/26 12:57:49;;;;;;;6.95;4.18;;;;;;;14.42;43.11;101966.22;6273886;22;20011;-84
2022/12/26 13:00:22;;;;;;;8.13;4.65;;;;;;;14.09;44.15;101966.78;6272538;22;20424;-82
2022/12/26 13:03:25;;;;;;;7.50;5.10;;;;;;;13.87;45.01;101964.47;6275075;22;20003;-84
2022/12/26 13:06:06;;;;;;;7.10;5.07;;;;;;;13.21;46.65;101960.88;6275014;22;20317;-82
2022/12/26 13:09:12;;;;;;;8.88;5.07;;;;;;;13.25;47.04;101967.69;6249040;22;20006;-82
2022/12/26 13:11:43;;;;;;;7.32;5.00;;;;;;;12.63;48.89;101939.38;6274580;22;19999;-83
2022/12/26 13:17:51;;;;;;;8.65;5.50;;;;;;;12.39;50.10;101964.94;6273853;22;20011;-82
2022/12/26 13:55:40;;;;;;;12.38;8.32;;;;;;;10.69;61.93;101961.94;6302786;22;20049;-82
2022/12/26 13:58:25;;;;;;;12.40;7.88;;;;;;;10.57;62.90;101957.59;6277105;22;20015;-84
2022/12/26 14:00:56;;;;;;;14.32;8.35;;;;;;;10.42;63.84;101949.00;6279667;22;20415;-82
2022/12/26 14:03:28;;;;;;;14.57;8.48;;;;;;;10.32;64.34;101953.41;6302527;22;20007;-83
2022/12/26 14:06:24;;;;;;;13.27;8.05;;;;;;;10.32;64.60;101965.06;6277310;22;20003;-84
2022/12/26 14:12:37;;;;;;;14.05;8.60;;;;;;;10.08;66.07;101965.19;6305069;22;20002;-82
2022/12/26 14:15:36;;;;;;;15.52;8.43;;;;;;;9.88;67.03;101965.94;6251288;22;20003;-83
2022/12/26 14:18:18;;;;;;;17.02;8.90;;;;;;;9.80;67.63;101955.84;6304418;22;20021;-83
2022/12/26 14:21:14;;;;;;;15.55;9.57;;;;;;;9.84;67.32;101953.78;6303132;22;20038;-82
2022/12/26 14:23:58;;;;;;;14.15;8.93;;;;;;;9.76;67.67;101949.00;6305852;22;20009;-83
2022/12/26 14:26:30;;;;;;;13.73;8.70;;;;;;;9.75;68.34;101950.00;6292006;22;20122;-81
2022/12/26 14:29:26;;;;;;;17.35;9.90;;;;;;;9.64;68.92;101941.94;6299532;22;20014;-84
2022/12/26 14:32:10;;;;;;;16.45;9.80;;;;;;;9.63;69.24;101932.19;6283129;22;20348;-83
2022/12/26 14:34:54;;;;;;;16.45;10.05;;;;;;;9.57;69.44;101938.06;6321461;22;20083;-83
2022/12/26 14:37:39;;;;;;;16.85;10.45;;;;;;;9.40;70.04;101934.88;6266377;22;20010;-83
2022/12/26 14:40:14;;;;;;;17.38;10.63;;;;;;;9.38;70.22;101936.84;6280455;22;19999;-84
2022/12/26 14:43:10;;;;;;;17.65;10.48;;;;;;;9.40;70.49;101940.25;6307978;22;19998;-82